Scf Baltica — A8IA5 — position and weather

sailwx.info

Track history (hours):
 
Tides and Currents Weather Stations Pressure Air Temp Water Temp Dewpoint Dewpoint Depression Visibility Wind Speed Wind Dir Waves Ship Positions

Scf Baltica

Last reported at 2016-Dec-04 07:14 UTC. Time now 2016-Dec-04 10:14 UTC.
Position N 59°38' E 023°59'.

Length 250 m; draft 8.9 m.

Type: Ship. MMSI: 636012813.

Date/timePositionNaut miles runAvg speedWind from/ knotsBaromVisibWave heightAir tempDewpointWater temp
2016-Dec-04 07:14N 59°38' E 023°59'913.5
2016-Dec-04 06:33N 59°34' E 023°42'  
2016-Dec-01 02:08N 59°35' E 023°07'711.7
2016-Dec-01 01:33N 59°37' E 023°20'1211.7
2016-Dec-01 00:33N 59°41' E 023°42'1411.6
2016-Nov-30 23:21N 59°45' E 024°09'1411.6
2016-Nov-30 22:10N 59°48' E 024°35'811.6
2016-Nov-30 21:30N 59°49' E 024°51'5111.7
2016-Nov-30 17:09N 60°01' E 026°29'711.4
2016-Nov-30 16:33N 60°01' E 026°43'1311.3
2016-Nov-30 15:26N 60°01' E 027°08'2412.9
2016-Nov-30 13:33N 60°12' E 027°52'1313.2
2016-Nov-30 12:33N 60°08' E 028°17'1111.2
2016-Nov-30 11:33N 60°02' E 028°36'10 9.6
2016-Nov-30 10:33N 59°53' E 028°30'10 9.9
2016-Nov-30 09:33N 59°43' E 028°25'1 0.6
2016-Nov-30 08:25N 59°43' E 028°26'0 0.0
2016-Nov-30 07:25N 59°43' E 028°26'0 0.0
2016-Nov-30 06:25N 59°43' E 028°26'0 0.0
2016-Nov-30 05:25N 59°43' E 028°26'0 0.0
2016-Nov-30 04:28N 59°43' E 028°26'0 0.0
2016-Nov-30 03:28N 59°43' E 028°26'0 0.0
2016-Nov-30 02:31N 59°43' E 028°26'0 0.0
2016-Nov-30 01:16N 59°43' E 028°26'0 0.0
2016-Nov-30 00:31N 59°43' E 028°26'0 0.0
2016-Nov-29 23:31N 59°43' E 028°26'0 0.0
2016-Nov-29 22:31N 59°43' E 028°26'0 0.0
2016-Nov-29 21:31N 59°43' E 028°26'0 0.0
2016-Nov-29 20:22N 59°43' E 028°26'0 0.0
2016-Nov-29 19:22N 59°43' E 028°26'0 0.0
2016-Nov-29 18:25N 59°43' E 028°26'0 0.0
2016-Nov-29 17:25N 59°43' E 028°26'0 0.0
2016-Nov-29 16:25N 59°43' E 028°26'0 0.0
2016-Nov-29 15:28N 59°43' E 028°26'0 0.0
2016-Nov-29 14:28N 59°43' E 028°26'0 0.0
2016-Nov-29 13:28N 59°43' E 028°26'0 0.0
2016-Nov-29 12:31N 59°43' E 028°26'0 0.0
2016-Nov-29 11:16N 59°43' E 028°26'0 0.0
2016-Nov-29 10:31N 59°43' E 028°26'0 0.0
2016-Nov-29 09:28N 59°43' E 028°26'0 0.0
2016-Nov-29 08:31N 59°43' E 028°26'0 0.0
2016-Nov-29 07:31N 59°43' E 028°26'0 0.0
2016-Nov-29 06:31N 59°43' E 028°26'0 0.0
2016-Nov-29 05:22N 59°43' E 028°26'0 0.0
2016-Nov-29 04:25N 59°43' E 028°26'0 0.0
2016-Nov-29 03:25N 59°43' E 028°26'0 0.0
2016-Nov-29 02:25N 59°43' E 028°26'0 0.0
2016-Nov-29 01:28N 59°43' E 028°26'0 0.0
2016-Nov-29 00:28N 59°43' E 028°26'0 0.0
2016-Nov-28 23:28N 59°43' E 028°26'1 1.0
2016-Nov-28 22:33N 59°42' E 028°24'9 9.0
2016-Nov-28 21:33N 59°51' E 028°27'8 8.1
2016-Nov-28 20:33N 59°58' E 028°35'7 6.7
2016-Nov-28 19:33N 60°03' E 028°25'1313.2
2016-Nov-28 18:33N 60°09' E 028°02'1313.3
2016-Nov-28 17:33N 60°08' E 027°35'1413.6
2016-Nov-28 16:33N 60°00' E 027°12'1313.2
2016-Nov-28 15:34N 59°59' E 026°46'1413.9
2016-Nov-28 14:33N 59°57' E 026°18'1814.1
2016-Nov-28 13:19N 59°52' E 025°44'1114.1
2016-Nov-28 12:33N 59°50' E 025°24'1414.2
2016-Nov-28 11:33N 59°46' E 024°56'1614.7
2016-Nov-28 10:29N 59°43' E 024°25'1415.0
2016-Nov-28 09:34N 59°39' E 023°59'1514.8
2016-Nov-28 08:33N 59°34' E 023°32'34310.6
2016-Nov-27 00:12N 55°41' E 015°43'913.7
2016-Nov-26 23:33N 55°37' E 015°29'1413.9
2016-Nov-26 22:33N 55°31' E 015°06'1413.9
2016-Nov-26 21:33N 55°25' E 014°44'1313.5
2016-Nov-26 20:33N 55°15' E 014°28'1413.6
2016-Nov-26 19:34N 55°05' E 014°13'1313.5
2016-Nov-26 18:33N 54°58' E 013°52'3014.2
2016-Nov-26 16:25N 54°48' E 013°02'1414.5
2016-Nov-26 15:29N 54°43' E 012°40'1415.0
2016-Nov-26 14:33N 54°36' E 012°20'1312.8
2016-Nov-26 13:31N 54°25' E 012°06'1415.1
2016-Nov-26 12:33N 54°26' E 011°42'1615.7
2016-Nov-26 11:33N 54°33' E 011°17'1615.6
2016-Nov-26 10:33N 54°41' E 010°54'1514.6
2016-Nov-26 09:33N 54°56' E 010°55'1514.7
2016-Nov-26 08:32N 55°10' E 011°03'5312.2
2016-Nov-26 04:15N 56°03' E 011°05'1014.4
2016-Nov-26 03:31N 56°13' E 011°05'2412.0
2016-Nov-26 01:30N 56°34' E 011°27'1313.1
2016-Nov-26 00:29N 56°42' E 011°46'1712.5
2016-Nov-25 23:09N 56°59' E 011°43'814.3
2016-Nov-25 22:33N 57°07' E 011°38'1414.3
2016-Nov-25 21:33N 57°20' E 011°29'1313.3
2016-Nov-25 20:34N 57°31' E 011°13'1514.5
2016-Nov-25 19:34N 57°36' E 010°48'5 5.3
2016-Nov-25 18:32N 57°39' E 010°40'0 0.0
2016-Nov-25 17:32N 57°39' E 010°40'0 0.0
2016-Nov-25 16:29N 57°39' E 010°40'0 0.0
2016-Nov-25 15:32N 57°39' E 010°40'0 0.0
2016-Nov-25 14:32N 57°39' E 010°40'0 0.0
2016-Nov-25 13:29N 57°39' E 010°40'0 0.0
2016-Nov-25 12:32N 57°39' E 010°40'0 0.0
2016-Nov-25 11:23N 57°39' E 010°40'0 0.0
2016-Nov-25 10:32N 57°39' E 010°40'0 0.0
2016-Nov-25 09:29N 57°39' E 010°40'2 2.0
2016-Nov-25 08:33N 57°41' E 010°42'7 7.0
2016-Nov-25 07:34N 57°48' E 010°40'1211.8
2016-Nov-25 06:33N 57°47' E 010°18'27212.3
2016-Nov-24 08:23N 54°23' E 004°54'  
Track history (hours):
 
Tides and Currents Weather Stations Pressure Air Temp Water Temp Dewpoint Dewpoint Depression Visibility Wind Speed Wind Dir Waves Ship Positions

Scf Baltica

Last reported at 2016-Dec-04 07:14 UTC. Time now 2016-Dec-04 10:14 UTC.
Position N 59°38' E 023°59'.

Length 250 m; draft 8.9 m.

Type: Ship. MMSI: 636012813.

Date/timePositionNaut miles runAvg speedWind from/ knotsBaromVisibWave heightAir tempDewpointWater temp
2016-Dec-04 07:14N 59°38' E 023°59'913.5
2016-Dec-04 06:33N 59°34' E 023°42'  
2016-Dec-01 02:08N 59°35' E 023°07'711.7
2016-Dec-01 01:33N 59°37' E 023°20'1211.7
2016-Dec-01 00:33N 59°41' E 023°42'1411.6
2016-Nov-30 23:21N 59°45' E 024°09'1411.6
2016-Nov-30 22:10N 59°48' E 024°35'811.6
2016-Nov-30 21:30N 59°49' E 024°51'5111.7
2016-Nov-30 17:09N 60°01' E 026°29'711.4
2016-Nov-30 16:33N 60°01' E 026°43'1311.3
2016-Nov-30 15:26N 60°01' E 027°08'2412.9
2016-Nov-30 13:33N 60°12' E 027°52'1313.2
2016-Nov-30 12:33N 60°08' E 028°17'1111.2
2016-Nov-30 11:33N 60°02' E 028°36'10 9.6
2016-Nov-30 10:33N 59°53' E 028°30'10 9.9
2016-Nov-30 09:33N 59°43' E 028°25'1 0.6
2016-Nov-30 08:25N 59°43' E 028°26'0 0.0
2016-Nov-30 07:25N 59°43' E 028°26'0 0.0
2016-Nov-30 06:25N 59°43' E 028°26'0 0.0
2016-Nov-30 05:25N 59°43' E 028°26'0 0.0
2016-Nov-30 04:28N 59°43' E 028°26'0 0.0
2016-Nov-30 03:28N 59°43' E 028°26'0 0.0
2016-Nov-30 02:31N 59°43' E 028°26'0 0.0
2016-Nov-30 01:16N 59°43' E 028°26'0 0.0
2016-Nov-30 00:31N 59°43' E 028°26'0 0.0
2016-Nov-29 23:31N 59°43' E 028°26'0 0.0
2016-Nov-29 22:31N 59°43' E 028°26'0 0.0
2016-Nov-29 21:31N 59°43' E 028°26'0 0.0
2016-Nov-29 20:22N 59°43' E 028°26'0 0.0
2016-Nov-29 19:22N 59°43' E 028°26'0 0.0
2016-Nov-29 18:25N 59°43' E 028°26'0 0.0
2016-Nov-29 17:25N 59°43' E 028°26'0 0.0
2016-Nov-29 16:25N 59°43' E 028°26'0 0.0
2016-Nov-29 15:28N 59°43' E 028°26'0 0.0
2016-Nov-29 14:28N 59°43' E 028°26'0 0.0
2016-Nov-29 13:28N 59°43' E 028°26'0 0.0
2016-Nov-29 12:31N 59°43' E 028°26'0 0.0
2016-Nov-29 11:16N 59°43' E 028°26'0 0.0
2016-Nov-29 10:31N 59°43' E 028°26'0 0.0
2016-Nov-29 09:28N 59°43' E 028°26'0 0.0
2016-Nov-29 08:31N 59°43' E 028°26'0 0.0
2016-Nov-29 07:31N 59°43' E 028°26'0 0.0
2016-Nov-29 06:31N 59°43' E 028°26'0 0.0
2016-Nov-29 05:22N 59°43' E 028°26'0 0.0
2016-Nov-29 04:25N 59°43' E 028°26'0 0.0
2016-Nov-29 03:25N 59°43' E 028°26'0 0.0
2016-Nov-29 02:25N 59°43' E 028°26'0 0.0
2016-Nov-29 01:28N 59°43' E 028°26'0 0.0
2016-Nov-29 00:28N 59°43' E 028°26'0 0.0
2016-Nov-28 23:28N 59°43' E 028°26'1 1.0
2016-Nov-28 22:33N 59°42' E 028°24'9 9.0
2016-Nov-28 21:33N 59°51' E 028°27'8 8.1
2016-Nov-28 20:33N 59°58' E 028°35'7 6.7
2016-Nov-28 19:33N 60°03' E 028°25'1313.2
2016-Nov-28 18:33N 60°09' E 028°02'1313.3
2016-Nov-28 17:33N 60°08' E 027°35'1413.6
2016-Nov-28 16:33N 60°00' E 027°12'1313.2
2016-Nov-28 15:34N 59°59' E 026°46'1413.9
2016-Nov-28 14:33N 59°57' E 026°18'1814.1
2016-Nov-28 13:19N 59°52' E 025°44'1114.1
2016-Nov-28 12:33N 59°50' E 025°24'1414.2
2016-Nov-28 11:33N 59°46' E 024°56'1614.7
2016-Nov-28 10:29N 59°43' E 024°25'1415.0
2016-Nov-28 09:34N 59°39' E 023°59'1514.8
2016-Nov-28 08:33N 59°34' E 023°32'34310.6
2016-Nov-27 00:12N 55°41' E 015°43'913.7
2016-Nov-26 23:33N 55°37' E 015°29'1413.9
2016-Nov-26 22:33N 55°31' E 015°06'1413.9
2016-Nov-26 21:33N 55°25' E 014°44'1313.5
2016-Nov-26 20:33N 55°15' E 014°28'1413.6
2016-Nov-26 19:34N 55°05' E 014°13'1313.5
2016-Nov-26 18:33N 54°58' E 013°52'3014.2
2016-Nov-26 16:25N 54°48' E 013°02'1414.5
2016-Nov-26 15:29N 54°43' E 012°40'1415.0
2016-Nov-26 14:33N 54°36' E 012°20'1312.8
2016-Nov-26 13:31N 54°25' E 012°06'1415.1
2016-Nov-26 12:33N 54°26' E 011°42'1615.7
2016-Nov-26 11:33N 54°33' E 011°17'1615.6
2016-Nov-26 10:33N 54°41' E 010°54'1514.6
2016-Nov-26 09:33N 54°56' E 010°55'1514.7
2016-Nov-26 08:32N 55°10' E 011°03'5312.2
2016-Nov-26 04:15N 56°03' E 011°05'1014.4
2016-Nov-26 03:31N 56°13' E 011°05'2412.0
2016-Nov-26 01:30N 56°34' E 011°27'1313.1
2016-Nov-26 00:29N 56°42' E 011°46'1712.5
2016-Nov-25 23:09N 56°59' E 011°43'814.3
2016-Nov-25 22:33N 57°07' E 011°38'1414.3
2016-Nov-25 21:33N 57°20' E 011°29'1313.3
2016-Nov-25 20:34N 57°31' E 011°13'1514.5
2016-Nov-25 19:34N 57°36' E 010°48'5 5.3
2016-Nov-25 18:32N 57°39' E 010°40'0 0.0
2016-Nov-25 17:32N 57°39' E 010°40'0 0.0
2016-Nov-25 16:29N 57°39' E 010°40'0 0.0
2016-Nov-25 15:32N 57°39' E 010°40'0 0.0
2016-Nov-25 14:32N 57°39' E 010°40'0 0.0
2016-Nov-25 13:29N 57°39' E 010°40'0 0.0
2016-Nov-25 12:32N 57°39' E 010°40'0 0.0
2016-Nov-25 11:23N 57°39' E 010°40'0 0.0
2016-Nov-25 10:32N 57°39' E 010°40'0 0.0
2016-Nov-25 09:29N 57°39' E 010°40'2 2.0
2016-Nov-25 08:33N 57°41' E 010°42'7 7.0
2016-Nov-25 07:34N 57°48' E 010°40'1211.8
2016-Nov-25 06:33N 57°47' E 010°18'27212.3
2016-Nov-24 08:23N 54°23' E 004°54'  

Dump ship's entire track history